Time;durP1;ratioP1;P1;durP2;ratioP2;P2;SDS_P1;SDS_P2;PMS_P1;PMS_P2;Temp;Humidity;BMP_temperature;BMP_pressure;BME280_temperature;BME280_humidity;BME280_pressure;Samples;Min_cycle;Max_cycle;Signal;HPM_P1;HPM_P2
2023/11/16 00:00:19;;;;;;;1.70;1.25;;;7.30;99.90;;;;;;2082306;28;20582;-67
2023/11/16 00:01:21;;;;;;;1.83;1.17;;;7.30;99.90;;;;;;2081482;28;20354;-67
2023/11/16 00:02:21;;;;;;;2.03;0.80;;;7.20;99.90;;;;;;2087212;28;20250;-67
2023/11/16 00:03:23;;;;;;;1.53;0.90;;;7.30;99.90;;;;;;2087612;28;20232;-67
2023/11/16 00:04:26;;;;;;;3.00;1.10;;;7.30;99.90;;;;;;2090252;28;20682;-67
2023/11/16 00:05:26;;;;;;;3.38;1.00;;;7.40;99.90;;;;;;2085478;28;20232;-67
2023/11/16 00:06:27;;;;;;;5.53;1.30;;;7.40;99.90;;;;;;2081141;28;20240;-66
2023/11/16 00:07:28;;;;;;;1.55;0.85;;;7.40;99.90;;;;;;2083537;28;20216;-67
2023/11/16 00:08:29;;;;;;;3.63;1.20;;;7.30;99.90;;;;;;2081898;28;20654;-67
2023/11/16 00:09:30;;;;;;;3.87;0.90;;;7.30;99.90;;;;;;2085472;28;20259;-66
2023/11/16 00:10:33;;;;;;;1.73;0.93;;;7.20;99.90;;;;;;2088475;28;20216;-67
2023/11/16 00:11:34;;;;;;;5.55;1.35;;;7.30;99.90;;;;;;2088232;28;20627;-67
2023/11/16 00:12:35;;;;;;;1.67;0.90;;;7.20;99.90;;;;;;2096747;28;20231;-67
2023/11/16 00:13:36;;;;;;;3.50;1.30;;;7.30;99.90;;;;;;2091554;28;20242;-67
2023/11/16 00:14:38;;;;;;;1.65;1.15;;;7.20;99.90;;;;;;2082554;28;20296;-67
2023/11/16 00:15:38;;;;;;;2.60;0.98;;;7.20;99.90;;;;;;2090918;28;20253;-67
2023/11/16 00:16:41;;;;;;;1.93;1.03;;;7.20;99.90;;;;;;2089158;28;20281;-67
2023/11/16 00:17:42;;;;;;;3.33;1.00;;;7.20;99.90;;;;;;2084660;28;20279;-67
2023/11/16 00:18:43;;;;;;;2.22;0.95;;;7.30;99.90;;;;;;2084064;28;20278;-67
2023/11/16 00:19:44;;;;;;;1.75;0.82;;;7.40;99.90;;;;;;2087900;28;20231;-67
2023/11/16 00:20:44;;;;;;;4.07;1.10;;;7.40;99.90;;;;;;2086423;28;20223;-67
2023/11/16 00:21:46;;;;;;;4.53;1.60;;;7.30;99.90;;;;;;2082748;28;20229;-67
2023/11/16 00:22:47;;;;;;;3.10;1.15;;;7.30;99.90;;;;;;2083764;28;20319;-67
2023/11/16 00:23:48;;;;;;;2.63;1.13;;;7.30;99.90;;;;;;2088343;28;20222;-67
2023/11/16 00:24:49;;;;;;;2.20;1.25;;;7.30;99.90;;;;;;2089516;28;20758;-67
2023/11/16 00:25:50;;;;;;;3.10;1.30;;;7.30;99.90;;;;;;2085572;28;20227;-67
2023/11/16 00:26:53;;;;;;;3.13;1.10;;;7.40;99.90;;;;;;2094395;28;21040;-67
2023/11/16 00:27:53;;;;;;;3.15;1.17;;;7.30;99.90;;;;;;2089229;28;20220;-67
2023/11/16 00:28:55;;;;;;;1.60;1.00;;;7.40;99.90;;;;;;2081145;28;20237;-67
2023/11/16 00:29:55;;;;;;;1.65;1.27;;;7.50;99.90;;;;;;2082382;28;20741;-67
2023/11/16 00:30:56;;;;;;;2.27;0.90;;;7.50;99.90;;;;;;2089523;28;20196;-68
2023/11/16 00:31:58;;;;;;;3.25;1.63;;;7.50;99.90;;;;;;2082291;28;20177;-67
2023/11/16 00:32:59;;;;;;;2.58;1.60;;;7.50;99.90;;;;;;2086414;28;20275;-67
2023/11/16 00:34:00;;;;;;;2.13;1.30;;;7.50;99.90;;;;;;2081908;28;20199;-67
2023/11/16 00:35:01;;;;;;;2.95;1.20;;;7.50;99.90;;;;;;2089657;28;20211;-67
2023/11/16 00:36:06;;;;;;;2.90;1.10;;;7.50;99.90;;;;;;2097209;28;20260;-67
2023/11/16 00:37:07;;;;;;;2.42;0.90;;;7.50;99.90;;;;;;2096452;28;20634;-67
2023/11/16 00:38:08;;;;;;;2.60;1.20;;;7.40;99.90;;;;;;2092135;28;20196;-67
2023/11/16 00:39:09;;;;;;;2.80;0.83;;;7.50;99.90;;;;;;2089634;28;20208;-67
2023/11/16 00:40:12;;;;;;;3.20;1.10;;;7.40;99.90;;;;;;2080943;28;20204;-67
2023/11/16 00:41:15;;;;;;;2.42;1.20;;;7.40;99.90;;;;;;2086814;28;20190;-67
2023/11/16 00:42:17;;;;;;;3.60;0.90;;;7.40;99.90;;;;;;2073972;28;20324;-67
2023/11/16 00:43:17;;;;;;;2.90;1.52;;;7.40;99.90;;;;;;2075626;28;20225;-67
2023/11/16 00:44:19;;;;;;;2.10;1.00;;;7.40;99.90;;;;;;2081695;28;20250;-67
2023/11/16 00:45:20;;;;;;;1.58;0.90;;;7.40;99.90;;;;;;2084639;28;20276;-67
2023/11/16 00:46:22;;;;;;;3.50;1.00;;;7.50;99.90;;;;;;2080045;28;20236;-67
2023/11/16 00:47:22;;;;;;;3.45;0.90;;;7.50;99.90;;;;;;2080251;28;20320;-67
2023/11/16 00:48:23;;;;;;;3.90;1.03;;;7.40;99.90;;;;;;2069660;28;20289;-67
2023/11/16 00:49:24;;;;;;;4.20;0.90;;;7.40;99.90;;;;;;2074896;28;20966;-67
2023/11/16 00:50:25;;;;;;;2.63;0.88;;;7.30;99.90;;;;;;2084403;28;20319;-67
2023/11/16 00:51:26;;;;;;;1.80;0.90;;;7.40;99.90;;;;;;2086528;28;20706;-67
2023/11/16 00:52:27;;;;;;;2.43;1.00;;;7.30;99.90;;;;;;2092873;28;20224;-67
2023/11/16 00:53:29;;;;;;;1.27;0.82;;;7.30;99.90;;;;;;2084762;28;20213;-66
2023/11/16 00:54:30;;;;;;;2.67;0.90;;;7.30;99.90;;;;;;2085042;28;20243;-66
2023/11/16 00:55:31;;;;;;;3.97;1.00;;;7.30;99.90;;;;;;2085966;28;20674;-67
2023/11/16 00:56:32;;;;;;;1.58;1.42;;;7.30;99.90;;;;;;2076274;28;20227;-67
2023/11/16 00:57:33;;;;;;;2.07;0.97;;;7.30;99.90;;;;;;2070274;28;20225;-67
2023/11/16 00:58:33;;;;;;;3.17;1.07;;;7.40;99.90;;;;;;2078345;28;20229;-67
2023/11/16 00:59:36;;;;;;;0.97;0.80;;;7.30;99.90;;;;;;2078380;28;20243;-67
2023/11/16 01:00:38;;;;;;;1.85;0.80;;;7.40;99.90;;;;;;2084150;28;20229;-67
2023/11/16 01:01:39;;;;;;;3.13;1.00;;;7.40;99.90;;;;;;2085061;28;20216;-67
2023/11/16 01:02:40;;;;;;;1.50;0.70;;;7.40;99.90;;;;;;2085755;28;20284;-67
2023/11/16 01:03:41;;;;;;;1.30;0.90;;;7.40;99.90;;;;;;2086525;28;20708;-67
2023/11/16 01:04:42;;;;;;;5.47;1.10;;;7.40;99.90;;;;;;2081600;28;20234;-67
2023/11/16 01:05:43;;;;;;;4.40;1.17;;;7.50;99.90;;;;;;2081044;28;20244;-67
2023/11/16 01:06:45;;;;;;;1.75;0.80;;;7.50;99.90;;;;;;2077162;28;20328;-67
2023/11/16 01:07:47;;;;;;;1.30;0.80;;;7.50;99.90;;;;;;2076666;28;20234;-67
2023/11/16 01:08:47;;;;;;;1.67;1.05;;;7.60;99.90;;;;;;2084908;28;20583;-67
2023/11/16 01:09:48;;;;;;;2.27;0.90;;;7.60;99.90;;;;;;2085939;28;20223;-67
2023/11/16 01:10:49;;;;;;;6.47;1.07;;;7.60;99.90;;;;;;2073326;28;20593;-67
2023/11/16 01:11:50;;;;;;;1.83;1.00;;;7.50;99.90;;;;;;2073425;28;20714;-67
2023/11/16 01:12:55;;;;;;;1.08;0.80;;;7.50;99.90;;;;;;2079595;28;20220;-67
2023/11/16 01:13:57;;;;;;;2.13;0.90;;;7.50;99.90;;;;;;2087489;28;20216;-68
2023/11/16 01:14:59;;;;;;;1.80;0.77;;;7.50;99.90;;;;;;2089017;28;20236;-68
2023/11/16 01:16:03;;;;;;;4.05;1.27;;;7.60;99.90;;;;;;2079196;28;20189;-68
2023/11/16 01:17:11;;;;;;;2.05;0.90;;;7.60;99.90;;;;;;2064027;28;20727;-68
2023/11/16 01:18:14;;;;;;;2.60;0.90;;;7.70;99.90;;;;;;2079401;28;20200;-67
2023/11/16 01:19:21;;;;;;;4.28;1.40;;;7.60;99.90;;;;;;2081261;28;20674;-67
2023/11/16 01:20:25;;;;;;;2.45;1.08;;;7.50;99.90;;;;;;2075173;28;20288;-67
2023/11/16 01:21:26;;;;;;;3.88;0.90;;;7.50;99.90;;;;;;2076480;28;20233;-67
2023/11/16 01:22:29;;;;;;;3.28;0.90;;;7.60;99.90;;;;;;2082817;28;20231;-67
2023/11/16 01:23:30;;;;;;;6.90;1.55;;;7.60;99.90;;;;;;2092033;28;20764;-67
2023/11/16 01:24:35;;;;;;;1.00;0.77;;;7.50;99.90;;;;;;2081779;28;20233;-67
2023/11/16 01:25:38;;;;;;;2.15;1.00;;;7.50;99.90;;;;;;2080578;28;20334;-67
2023/11/16 01:26:42;;;;;;;4.55;1.20;;;7.50;99.90;;;;;;2082092;28;20311;-67
2023/11/16 01:27:45;;;;;;;2.20;1.20;;;7.50;99.90;;;;;;2083694;28;20800;-67
2023/11/16 01:29:01;;;;;;;3.13;1.00;;;7.60;99.90;;;;;;2079848;28;20312;-67
2023/11/16 01:30:03;;;;;;;3.70;0.90;;;7.60;99.90;;;;;;2078695;28;20351;-67
2023/11/16 01:31:04;;;;;;;1.60;1.05;;;7.60;99.90;;;;;;2083063;28;20192;-68
2023/11/16 01:32:05;;;;;;;3.92;1.10;;;7.60;99.90;;;;;;2086435;28;20191;-67
2023/11/16 01:33:08;;;;;;;2.83;0.90;;;7.50;99.90;;;;;;2088375;28;20278;-67
2023/11/16 01:34:10;;;;;;;2.38;1.50;;;7.50;99.90;;;;;;2080897;28;20177;-68
2023/11/16 01:35:10;;;;;;;2.10;1.30;;;7.50;99.90;;;;;;2081307;28;20541;-67
2023/11/16 01:36:13;;;;;;;7.20;1.40;;;7.40;99.90;;;;;;2080698;28;20199;-68
2023/11/16 01:37:13;;;;;;;2.20;1.02;;;7.50;99.90;;;;;;2079507;28;20603;-67
2023/11/16 01:38:14;;;;;;;2.97;1.00;;;7.40;99.90;;;;;;2083303;28;20192;-67
2023/11/16 01:39:15;;;;;;;3.05;1.20;;;7.50;99.90;;;;;;2078440;28;30477;-67
2023/11/16 01:40:16;;;;;;;2.00;1.00;;;7.50;99.90;;;;;;2087626;28;20239;-67
2023/11/16 01:41:18;;;;;;;2.20;1.40;;;7.40;99.90;;;;;;2076543;28;20224;-67
2023/11/16 01:42:18;;;;;;;1.45;0.95;;;7.50;99.90;;;;;;2078791;28;20228;-67
2023/11/16 01:43:20;;;;;;;1.20;0.80;;;7.50;99.90;;;;;;2082721;28;20222;-67
2023/11/16 01:44:21;;;;;;;6.07;1.23;;;7.50;99.90;;;;;;2099213;28;20234;-68
2023/11/16 01:45:33;;;;;;;4.37;1.20;;;7.50;99.90;;;;;;2086465;28;20251;-67
2023/11/16 01:46:34;;;;;;;2.30;0.90;;;7.50;99.90;;;;;;2082910;28;20569;-67
2023/11/16 01:47:35;;;;;;;3.90;1.40;;;7.40;99.90;;;;;;2087496;28;20281;-67
2023/11/16 01:48:41;;;;;;;3.85;1.20;;;7.40;99.90;;;;;;2088682;28;20216;-67
2023/11/16 01:49:43;;;;;;;2.00;1.20;;;7.30;99.90;;;;;;2088457;28;20370;-67
2023/11/16 01:50:44;;;;;;;2.15;1.17;;;7.30;99.90;;;;;;2083088;28;20383;-67
2023/11/16 01:51:46;;;;;;;1.25;0.93;;;7.40;99.90;;;;;;2083082;28;20220;-67
2023/11/16 01:52:47;;;;;;;4.22;0.90;;;7.30;99.90;;;;;;2083126;28;20283;-67
2023/11/16 01:53:59;;;;;;;2.40;1.10;;;7.30;99.90;;;;;;2081706;28;20239;-67
2023/11/16 01:54:59;;;;;;;2.20;0.93;;;7.20;99.90;;;;;;2089579;28;20681;-67
2023/11/16 01:56:01;;;;;;;3.13;1.33;;;7.20;99.90;;;;;;2070928;28;20239;-67
2023/11/16 01:57:03;;;;;;;2.92;1.20;;;7.10;99.90;;;;;;2070624;28;20200;-68
2023/11/16 01:58:05;;;;;;;2.08;0.98;;;7.10;99.90;;;;;;2078775;28;20626;-67
2023/11/16 01:59:07;;;;;;;2.53;1.05;;;7.00;99.90;;;;;;2082364;28;20290;-67
2023/11/16 02:00:11;;;;;;;2.45;0.93;;;7.10;99.90;;;;;;2080889;28;20698;-67
2023/11/16 02:01:13;;;;;;;5.95;1.33;;;7.00;99.90;;;;;;2076588;28;20188;-67
2023/11/16 02:02:14;;;;;;;5.43;1.65;;;7.00;99.90;;;;;;2076056;28;20260;-67
2023/11/16 02:03:15;;;;;;;4.50;1.40;;;7.00;99.90;;;;;;2070266;28;20256;-67
2023/11/16 02:04:16;;;;;;;2.13;1.10;;;7.00;99.90;;;;;;2078896;28;20318;-67
2023/11/16 02:05:18;;;;;;;3.07;1.07;;;6.90;99.90;;;;;;2082959;28;20306;-67
2023/11/16 02:06:19;;;;;;;1.83;0.88;;;7.00;99.90;;;;;;2087765;28;20235;-67
2023/11/16 02:07:20;;;;;;;2.23;1.20;;;7.00;99.90;;;;;;2083792;28;20236;-67
2023/11/16 02:08:21;;;;;;;2.70;1.10;;;7.00;99.90;;;;;;2085353;28;20231;-67
2023/11/16 02:09:22;;;;;;;1.65;0.90;;;7.00;99.90;;;;;;2077627;28;20233;-67
2023/11/16 02:10:22;;;;;;;5.77;1.53;;;7.00;99.90;;;;;;2076099;28;20711;-67
2023/11/16 02:11:23;;;;;;;2.97;1.50;;;7.00;99.90;;;;;;2082703;28;20230;-67
2023/11/16 02:12:24;;;;;;;5.23;1.23;;;7.10;99.90;;;;;;2090269;28;20696;-67
2023/11/16 02:13:25;;;;;;;2.07;1.10;;;7.10;99.90;;;;;;2088743;28;20256;-67
2023/11/16 02:14:25;;;;;;;2.20;1.13;;;7.00;99.90;;;;;;2075535;28;20232;-67
2023/11/16 02:15:31;;;;;;;4.53;1.10;;;7.10;99.90;;;;;;2084002;28;20674;-67
2023/11/16 02:16:32;;;;;;;1.52;0.80;;;7.00;99.90;;;;;;2090470;28;20223;-67
2023/11/16 02:17:35;;;;;;;2.33;1.10;;;7.00;99.90;;;;;;2078076;28;20213;-67
2023/11/16 02:18:38;;;;;;;1.75;1.00;;;7.00;99.90;;;;;;2084460;28;20702;-67
2023/11/16 02:19:39;;;;;;;2.80;1.25;;;6.90;99.90;;;;;;2090247;28;20227;-67
2023/11/16 02:20:41;;;;;;;3.50;1.45;;;6.90;99.90;;;;;;2088349;28;20227;-67
2023/11/16 02:21:45;;;;;;;2.83;0.93;;;6.90;99.90;;;;;;2091999;28;20218;-67
2023/11/16 02:22:48;;;;;;;2.17;0.95;;;6.90;99.90;;;;;;2085919;28;20713;-67
2023/11/16 02:23:50;;;;;;;3.05;1.40;;;6.90;99.90;;;;;;2084497;28;20240;-67
2023/11/16 02:24:51;;;;;;;5.43;1.35;;;6.90;99.90;;;;;;2074862;28;20226;-67
2023/11/16 02:25:56;;;;;;;8.43;1.10;;;6.90;99.90;;;;;;2075672;28;20711;-67
2023/11/16 02:26:57;;;;;;;2.63;1.13;;;7.00;99.90;;;;;;2076918;28;20376;-68
2023/11/16 02:27:58;;;;;;;2.37;1.20;;;7.10;99.90;;;;;;2082683;28;20279;-67
2023/11/16 02:28:58;;;;;;;3.03;1.70;;;7.00;99.90;;;;;;2085986;28;20258;-68
2023/11/16 02:29:59;;;;;;;2.57;1.30;;;7.00;99.90;;;;;;2079411;28;20280;-67
2023/11/16 02:31:03;;;;;;;2.13;0.90;;;7.00;99.90;;;;;;2081878;28;20670;-68
2023/11/16 02:32:04;;;;;;;6.95;1.88;;;7.00;99.90;;;;;;2088037;28;20462;-67
2023/11/16 02:33:05;;;;;;;2.65;1.13;;;7.00;99.90;;;;;;2083533;28;20196;-67
2023/11/16 02:34:06;;;;;;;1.02;0.90;;;7.00;99.90;;;;;;2082931;28;20601;-67
2023/11/16 02:35:08;;;;;;;2.53;1.10;;;7.00;99.90;;;;;;2074498;28;20186;-67
2023/11/16 02:36:10;;;;;;;1.65;1.13;;;7.10;99.90;;;;;;2069475;28;20228;-67
2023/11/16 02:37:11;;;;;;;3.05;1.00;;;7.10;99.90;;;;;;2073834;28;20640;-67
2023/11/16 02:38:16;;;;;;;1.90;0.93;;;7.00;99.90;;;;;;2071669;28;20217;-67
2023/11/16 02:39:17;;;;;;;3.25;1.30;;;7.00;99.90;;;;;;2076289;28;20266;-67
2023/11/16 02:40:20;;;;;;;1.20;1.00;;;7.00;99.90;;;;;;2077301;28;20244;-67
2023/11/16 02:41:22;;;;;;;2.10;1.13;;;6.90;99.90;;;;;;2079820;28;20232;-67
2023/11/16 02:42:23;;;;;;;2.28;1.20;;;6.90;99.90;;;;;;2083943;28;20294;-67
2023/11/16 02:43:28;;;;;;;1.73;0.98;;;6.80;99.90;;;;;;2082384;28;20232;-67
2023/11/16 02:44:30;;;;;;;2.65;1.00;;;6.80;99.90;;;;;;2079408;28;20225;-67
2023/11/16 02:45:32;;;;;;;3.20;1.10;;;6.80;99.90;;;;;;2080883;28;20300;-67
2023/11/16 02:46:33;;;;;;;3.15;1.42;;;6.80;99.90;;;;;;2080114;28;20259;-67
2023/11/16 02:47:34;;;;;;;2.57;1.10;;;6.80;99.90;;;;;;2087988;28;20317;-67
2023/11/16 02:48:35;;;;;;;3.30;1.10;;;6.80;99.90;;;;;;2087056;28;20227;-67
2023/11/16 02:49:36;;;;;;;1.77;1.00;;;6.60;99.90;;;;;;2076284;28;20244;-67
2023/11/16 02:50:38;;;;;;;2.35;1.00;;;6.70;99.90;;;;;;2069953;28;20221;-67
2023/11/16 02:51:38;;;;;;;6.82;1.27;;;6.70;99.90;;;;;;2077688;28;20212;-67
2023/11/16 02:52:39;;;;;;;1.10;1.00;;;6.70;99.90;;;;;;2082959;28;20269;-67
2023/11/16 02:53:40;;;;;;;3.77;1.73;;;6.80;99.90;;;;;;2082698;28;20693;-67
2023/11/16 02:54:40;;;;;;;2.47;1.40;;;6.80;99.90;;;;;;2085018;28;20226;-67
2023/11/16 02:55:41;;;;;;;2.77;1.17;;;6.90;99.90;;;;;;2082445;28;20248;-67
2023/11/16 02:56:45;;;;;;;1.83;0.82;;;6.80;99.90;;;;;;2090953;28;20231;-67
2023/11/16 02:57:46;;;;;;;2.22;1.00;;;6.80;99.90;;;;;;2095678;28;20234;-67
2023/11/16 02:58:47;;;;;;;3.03;1.10;;;6.80;99.90;;;;;;2090507;28;20220;-67
2023/11/16 02:59:49;;;;;;;5.13;1.10;;;6.80;99.90;;;;;;2090845;28;20228;-67
2023/11/16 03:00:50;;;;;;;2.42;1.10;;;6.80;99.90;;;;;;2091830;28;20639;-67
2023/11/16 03:01:51;;;;;;;3.63;1.20;;;6.80;99.90;;;;;;2091644;28;20579;-67
2023/11/16 03:02:53;;;;;;;4.83;1.13;;;6.80;99.90;;;;;;2084929;28;20228;-67
2023/11/16 03:03:55;;;;;;;1.98;0.82;;;6.80;99.90;;;;;;2088724;28;20251;-67
2023/11/16 03:04:56;;;;;;;1.92;0.93;;;6.80;99.90;;;;;;2083153;28;20216;-68
2023/11/16 03:05:57;;;;;;;5.33;1.43;;;6.70;99.90;;;;;;2091769;28;20629;-67
2023/11/16 03:06:57;;;;;;;5.57;1.47;;;6.70;99.90;;;;;;2096074;28;20208;-67
2023/11/16 03:07:58;;;;;;;1.37;0.80;;;6.70;99.90;;;;;;2083533;28;20615;-67
2023/11/16 03:08:59;;;;;;;3.93;0.90;;;6.70;99.90;;;;;;2079055;28;20197;-67
2023/11/16 03:10:01;;;;;;;0.80;0.73;;;6.70;99.90;;;;;;2089093;28;20194;-67
2023/11/16 03:11:02;;;;;;;2.85;1.30;;;6.70;99.90;;;;;;2089819;28;20176;-67
2023/11/16 03:12:04;;;;;;;4.18;1.60;;;6.80;99.90;;;;;;2086749;28;20192;-67
2023/11/16 03:13:06;;;;;;;2.03;0.93;;;6.80;99.90;;;;;;2091490;28;20286;-67
2023/11/16 03:14:08;;;;;;;1.48;1.00;;;6.80;99.90;;;;;;2096707;28;20603;-67
2023/11/16 03:15:09;;;;;;;1.33;0.88;;;6.80;99.90;;;;;;2088705;28;20200;-67
2023/11/16 03:16:10;;;;;;;2.00;1.23;;;6.80;99.90;;;;;;2091846;28;20224;-67
2023/11/16 03:17:11;;;;;;;1.50;1.03;;;6.80;99.90;;;;;;2091881;28;20214;-67
2023/11/16 03:18:14;;;;;;;3.78;1.15;;;6.90;99.90;;;;;;2091796;28;20229;-67
2023/11/16 03:19:18;;;;;;;5.38;1.00;;;6.80;99.90;;;;;;2089517;28;20223;-67
2023/11/16 03:20:20;;;;;;;5.13;1.13;;;6.80;99.90;;;;;;2082145;28;20702;-67
2023/11/16 03:21:21;;;;;;;1.85;0.80;;;6.90;99.90;;;;;;2080228;28;20271;-67
2023/11/16 03:22:22;;;;;;;3.07;1.00;;;6.80;99.90;;;;;;2088166;28;20232;-67
2023/11/16 03:23:22;;;;;;;3.13;1.00;;;6.80;99.90;;;;;;2084885;28;20232;-67
2023/11/16 03:24:24;;;;;;;3.60;1.10;;;6.90;99.90;;;;;;2086490;28;20235;-67
2023/11/16 03:25:26;;;;;;;3.22;1.05;;;6.90;99.90;;;;;;2087510;28;20232;-67
2023/11/16 03:26:27;;;;;;;1.42;0.85;;;6.80;99.90;;;;;;2087156;28;20283;-67
2023/11/16 03:27:28;;;;;;;13.13;1.67;;;6.90;99.90;;;;;;2085276;28;20281;-67
2023/11/16 03:28:29;;;;;;;2.70;1.08;;;6.90;99.90;;;;;;2079621;28;20223;-67
2023/11/16 03:29:30;;;;;;;2.70;0.90;;;6.90;99.90;;;;;;2087607;28;20764;-67
2023/11/16 03:30:30;;;;;;;2.37;1.07;;;6.90;99.90;;;;;;2082936;28;20231;-67
2023/11/16 03:31:35;;;;;;;1.60;1.00;;;6.90;99.90;;;;;;2076578;28;20224;-66
2023/11/16 03:32:36;;;;;;;2.53;0.90;;;6.90;99.90;;;;;;2084772;28;20299;-67
2023/11/16 03:33:37;;;;;;;2.47;1.47;;;6.90;99.90;;;;;;2100017;28;20223;-67
2023/11/16 03:34:37;;;;;;;1.17;0.70;;;6.90;99.90;;;;;;2093172;28;20216;-66
2023/11/16 03:35:39;;;;;;;1.60;1.00;;;6.90;99.90;;;;;;2087481;28;20216;-67
2023/11/16 03:36:39;;;;;;;1.80;1.20;;;6.90;99.90;;;;;;2092207;28;20276;-67
2023/11/16 03:37:42;;;;;;;2.70;1.00;;;6.90;99.90;;;;;;2098482;28;20279;-67
2023/11/16 03:38:46;;;;;;;1.35;0.88;;;6.90;99.90;;;;;;2092517;28;20577;-66
2023/11/16 03:39:47;;;;;;;3.35;1.02;;;6.80;99.90;;;;;;2078051;28;20239;-67
2023/11/16 03:40:49;;;;;;;1.80;1.00;;;6.80;99.90;;;;;;2083223;28;20217;-67
2023/11/16 03:41:49;;;;;;;1.60;0.93;;;6.80;99.90;;;;;;2096016;28;20265;-67
2023/11/16 03:42:50;;;;;;;1.67;1.03;;;6.90;99.90;;;;;;2082928;28;20728;-67
2023/11/16 03:43:51;;;;;;;4.93;1.00;;;6.80;99.90;;;;;;2081994;28;20702;-67
2023/11/16 03:44:52;;;;;;;4.27;1.00;;;6.80;99.90;;;;;;2080409;28;20220;-67
2023/11/16 03:45:53;;;;;;;2.83;1.20;;;6.90;99.90;;;;;;2082944;28;20668;-67
2023/11/16 03:46:54;;;;;;;4.97;1.00;;;6.90;99.90;;;;;;2077393;28;20279;-67
2023/11/16 03:47:55;;;;;;;1.90;0.80;;;6.80;99.90;;;;;;2077369;28;20229;-68
2023/11/16 03:48:56;;;;;;;1.80;0.93;;;6.80;99.90;;;;;;2081460;28;20683;-67
2023/11/16 03:49:58;;;;;;;2.17;1.00;;;6.80;99.90;;;;;;2094165;28;20268;-68
2023/11/16 03:50:59;;;;;;;2.97;1.33;;;6.70;99.90;;;;;;2086588;28;20177;-67
2023/11/16 03:52:00;;;;;;;2.70;1.10;;;6.70;99.90;;;;;;2070829;28;20256;-67
2023/11/16 03:53:01;;;;;;;1.67;0.73;;;6.80;99.90;;;;;;2086618;28;20196;-67
2023/11/16 03:54:02;;;;;;;2.93;0.97;;;6.80;99.90;;;;;;2080619;28;20246;-67
2023/11/16 03:55:04;;;;;;;3.08;1.00;;;6.80;99.90;;;;;;2082998;28;20181;-67
2023/11/16 03:56:05;;;;;;;3.83;1.60;;;6.90;99.90;;;;;;2082590;28;20213;-67
2023/11/16 03:57:08;;;;;;;1.40;0.90;;;6.90;99.90;;;;;;2079117;28;20189;-67
2023/11/16 03:58:09;;;;;;;4.07;1.08;;;6.80;99.90;;;;;;2078019;28;20215;-67
2023/11/16 03:59:15;;;;;;;1.85;1.00;;;6.80;99.90;;;;;;2083128;28;20296;-67
2023/11/16 04:00:19;;;;;;;1.63;0.95;;;6.80;99.90;;;;;;2081985;28;20596;-67
2023/11/16 04:01:20;;;;;;;3.95;1.15;;;6.80;99.90;;;;;;2078420;28;20239;-67
2023/11/16 04:02:20;;;;;;;2.03;1.17;;;6.80;99.90;;;;;;2085569;28;20225;-67
2023/11/16 04:03:21;;;;;;;1.80;0.90;;;6.80;99.90;;;;;;2087854;28;20262;-67
2023/11/16 04:04:23;;;;;;;2.40;1.17;;;6.80;99.90;;;;;;2084171;28;20310;-67
2023/11/16 04:05:26;;;;;;;2.97;1.02;;;6.80;99.90;;;;;;2073614;28;20230;-67
2023/11/16 04:06:29;;;;;;;2.22;0.90;;;6.80;99.90;;;;;;2087650;28;20239;-67
2023/11/16 04:07:32;;;;;;;4.35;1.00;;;6.80;99.90;;;;;;2086676;28;20286;-66
2023/11/16 04:08:32;;;;;;;2.20;1.05;;;6.80;99.90;;;;;;2079928;28;20217;-66
2023/11/16 04:09:36;;;;;;;1.60;1.00;;;6.80;99.90;;;;;;2081984;28;20220;-67
2023/11/16 04:10:37;;;;;;;4.18;1.27;;;6.80;99.90;;;;;;2083868;28;20459;-66
2023/11/16 04:11:47;;;;;;;3.40;1.30;;;6.80;99.90;;;;;;2081547;28;20691;-66
2023/11/16 04:12:48;;;;;;;3.35;1.00;;;6.90;99.90;;;;;;2085543;28;20218;-66
2023/11/16 04:13:49;;;;;;;1.93;1.20;;;6.90;99.90;;;;;;2077223;28;20224;-67
2023/11/16 04:14:50;;;;;;;2.45;1.73;;;6.80;99.90;;;;;;2071309;28;20226;-66
2023/11/16 04:15:53;;;;;;;2.97;1.30;;;6.80;99.90;;;;;;2082555;28;20220;-66
2023/11/16 04:16:53;;;;;;;1.15;0.85;;;6.80;99.90;;;;;;2082761;28;20223;-67
2023/11/16 04:17:54;;;;;;;1.53;1.00;;;6.80;99.90;;;;;;2082315;28;20286;-67
2023/11/16 04:18:55;;;;;;;3.63;1.38;;;6.70;99.90;;;;;;2083165;28;20225;-67
2023/11/16 04:19:57;;;;;;;1.90;1.43;;;6.70;99.90;;;;;;2089026;28;20219;-67
2023/11/16 04:20:57;;;;;;;1.08;0.80;;;6.70;99.90;;;;;;2090710;28;20567;-67
2023/11/16 04:21:59;;;;;;;3.90;1.30;;;6.70;99.90;;;;;;2084937;28;20195;-67
2023/11/16 04:22:59;;;;;;;3.55;1.20;;;6.80;99.90;;;;;;2082648;28;20676;-67
2023/11/16 04:24:03;;;;;;;3.37;1.10;;;6.70;99.90;;;;;;2079638;28;20200;-67
2023/11/16 04:25:25;;;;;;;1.70;0.88;;;6.70;99.90;;;;;;2075175;28;20173;-67
2023/11/16 04:26:28;;;;;;;2.00;1.30;;;6.70;99.90;;;;;;2074497;28;20277;-67
2023/11/16 04:27:29;;;;;;;1.25;0.90;;;6.70;99.90;;;;;;2082228;28;20224;-66
2023/11/16 04:28:33;;;;;;;3.33;1.23;;;6.70;99.90;;;;;;2077874;28;20219;-66
2023/11/16 04:29:34;;;;;;;5.05;1.40;;;6.70;99.90;;;;;;2072157;28;20232;-67
2023/11/16 04:30:35;;;;;;;6.03;1.17;;;6.70;99.90;;;;;;2074865;28;20222;-66
2023/11/16 04:31:36;;;;;;;1.57;1.00;;;6.70;99.90;;;;;;2079295;28;20217;-67
2023/11/16 04:32:37;;;;;;;1.87;1.37;;;6.70;99.90;;;;;;2084104;28;20223;-67
2023/11/16 04:33:37;;;;;;;2.75;0.80;;;6.70;99.90;;;;;;2081474;28;20254;-67
2023/11/16 04:34:38;;;;;;;2.07;1.17;;;6.70;99.90;;;;;;2079286;28;20287;-67
2023/11/16 04:35:39;;;;;;;5.70;2.10;;;6.60;99.90;;;;;;2083226;28;20214;-67
2023/11/16 04:36:41;;;;;;;4.20;1.73;;;6.60;99.90;;;;;;2084731;28;20224;-67
2023/11/16 04:37:42;;;;;;;6.15;2.65;;;6.60;99.90;;;;;;2085666;28;20221;-67
2023/11/16 04:38:46;;;;;;;6.15;3.47;;;6.70;99.90;;;;;;2085603;28;20216;-67
2023/11/16 04:39:47;;;;;;;5.45;3.20;;;6.60;99.90;;;;;;2089001;28;20306;-67
2023/11/16 04:40:47;;;;;;;6.47;3.97;;;6.60;99.90;;;;;;2093204;28;20226;-67
2023/11/16 04:41:49;;;;;;;5.53;3.40;;;6.60;99.90;;;;;;2093020;28;20223;-67
2023/11/16 04:42:50;;;;;;;3.85;2.90;;;6.60;99.90;;;;;;2092745;28;20230;-66
2023/11/16 04:43:51;;;;;;;10.10;5.60;;;6.70;99.90;;;;;;2094557;28;20230;-66
2023/11/16 04:44:52;;;;;;;8.02;4.55;;;6.70;99.90;;;;;;2087622;28;20309;-66
2023/11/16 04:45:54;;;;;;;6.83;5.13;;;6.70;99.90;;;;;;2084007;28;20588;-66
2023/11/16 04:46:55;;;;;;;7.88;5.57;;;6.70;99.90;;;;;;2084718;28;20865;-67
2023/11/16 04:47:58;;;;;;;10.77;5.87;;;6.70;99.90;;;;;;2079999;28;20247;-68
2023/11/16 04:49:00;;;;;;;6.40;3.60;;;6.70;99.90;;;;;;2088852;28;20216;-67
2023/11/16 04:50:00;;;;;;;4.25;3.38;;;6.70;99.90;;;;;;2087607;28;20666;-67
2023/11/16 04:51:03;;;;;;;9.27;4.17;;;6.70;99.90;;;;;;2087808;28;20172;-67
2023/11/16 04:52:04;;;;;;;3.75;3.00;;;6.60;99.90;;;;;;2087665;28;20191;-67
2023/11/16 04:53:05;;;;;;;6.40;3.38;;;6.60;99.90;;;;;;2097147;28;20179;-67
2023/11/16 04:54:06;;;;;;;5.33;3.03;;;6.60;99.90;;;;;;2086912;28;20242;-67
2023/11/16 04:55:07;;;;;;;8.38;2.97;;;6.60;99.90;;;;;;2084720;28;20187;-66
2023/11/16 04:56:09;;;;;;;3.60;2.40;;;6.70;99.90;;;;;;2084189;28;20192;-66
2023/11/16 04:57:10;;;;;;;7.88;2.85;;;6.70;99.90;;;;;;2085575;28;20270;-67
2023/11/16 04:58:11;;;;;;;2.73;1.73;;;6.70;99.90;;;;;;2093305;28;20187;-67
2023/11/16 04:59:11;;;;;;;3.47;1.93;;;6.70;99.90;;;;;;2088908;28;20203;-67
2023/11/16 05:00:13;;;;;;;4.57;1.77;;;6.80;99.90;;;;;;2087612;28;20609;-67
2023/11/16 05:01:14;;;;;;;2.83;1.65;;;6.80;99.90;;;;;;2087947;28;20184;-67
2023/11/16 05:02:15;;;;;;;2.15;1.10;;;6.80;99.90;;;;;;2087867;28;23369;-67
2023/11/16 05:03:16;;;;;;;3.83;1.70;;;6.80;99.90;;;;;;2094193;28;20233;-67
2023/11/16 05:04:17;;;;;;;5.40;2.23;;;6.80;99.90;;;;;;2093468;28;20235;-66
2023/11/16 05:05:18;;;;;;;3.90;1.83;;;6.80;99.90;;;;;;2091404;28;20721;-67
2023/11/16 05:06:18;;;;;;;5.17;2.40;;;6.80;99.90;;;;;;2078944;28;20240;-67
2023/11/16 05:07:19;;;;;;;6.40;3.00;;;6.70;99.90;;;;;;2079194;28;20233;-66
2023/11/16 05:08:20;;;;;;;7.97;4.15;;;6.70;99.90;;;;;;2088331;28;20228;-66
2023/11/16 05:09:21;;;;;;;9.65;5.07;;;6.60;99.90;;;;;;2079961;28;20244;-66
2023/11/16 05:10:22;;;;;;;9.50;5.30;;;6.50;99.90;;;;;;2078722;28;20608;-66
2023/11/16 05:11:24;;;;;;;10.17;5.03;;;6.40;99.90;;;;;;2074419;28;21033;-67
2023/11/16 05:12:25;;;;;;;10.18;4.55;;;6.40;99.90;;;;;;2079120;28;20236;-66
2023/11/16 05:13:26;;;;;;;7.50;4.15;;;6.40;99.90;;;;;;2082296;28;20229;-67
2023/11/16 05:14:27;;;;;;;5.43;2.93;;;6.30;99.90;;;;;;2080907;28;20236;-66
2023/11/16 05:15:27;;;;;;;5.53;3.27;;;6.30;99.90;;;;;;2080805;28;20701;-66
2023/11/16 05:16:28;;;;;;;3.73;2.37;;;6.30;99.90;;;;;;2083520;28;20290;-67
2023/11/16 05:17:29;;;;;;;3.10;1.70;;;6.40;99.90;;;;;;2075607;28;20236;-67
2023/11/16 05:18:31;;;;;;;2.47;1.90;;;6.30;99.90;;;;;;2083528;28;20906;-66
2023/11/16 05:19:31;;;;;;;3.38;2.03;;;6.30;99.90;;;;;;2083573;28;20228;-66
2023/11/16 05:20:32;;;;;;;2.57;1.50;;;6.30;99.90;;;;;;2078273;28;20649;-66
2023/11/16 05:21:33;;;;;;;4.10;1.20;;;6.30;99.90;;;;;;2073245;28;20231;-66
2023/11/16 05:22:33;;;;;;;4.83;2.27;;;6.40;99.90;;;;;;2081191;28;21056;-66
2023/11/16 05:23:37;;;;;;;2.27;1.10;;;6.30;99.90;;;;;;2077424;28;20236;-67
2023/11/16 05:24:38;;;;;;;1.63;1.17;;;6.40;99.90;;;;;;2079571;28;20215;-66
2023/11/16 05:25:39;;;;;;;2.13;1.40;;;6.40;99.90;;;;;;2083584;28;20679;-67